Hauptseite
METAR-TAF:

METAR-TAF

Flughäfen :

Kerteh, Malaysia

Breite: 04-32-15N, Länge: 103-25-36E, Höhe: 5 m

Beobachtung

Neuester Wetterbericht von vor 53 Minuten, um 17:00 UTC
Windstille
Temperatur 25°C
Luftfeuchtigkeit 94%
Luftdruck 1009 hPa

METAR: WMKE 181700Z AUTO 00000KT //// // ////// 25/24 Q1009

Zeit: 01:53 (17:53 UTC)

Prognose

Neuester Wetterbericht von vor 53 Minuten, um 17:00 UTC
Gültige Prognose vom 18 um 18 UTC bis 19 um 18 UTC
Wind 3 kt aus unterschiedlichen Richtungen
Sichtweite 10 km oder mehr
Leicht bewölkt in der Höhe von 2000 ft
Zeitweise
vom 19 um 09 UTC bis 19 um 12 UTC
Sichtweite: 5000 m
Leicht bewölkt in der Höhe von 800 ft
Leicht bewölkt in der Höhe von 1400 ft, Kumulonimbus.
Gewitter, Regen,

TAF: WMKE 181700Z 1818/1918 VRB03KT 9999 FEW020 TEMPO 1909/1912 5000 TSRA FEW008 FEW014CB

Wetterbeobachtungen und Prognosen von mehr als 4000 Flughäfen (METAR und TAF Bericht).

Die verfügbaren Stationen werden durch gelbe und rote Markierungen auf der Karte dargestellt.

Führen Sie die Maus auf sie, um den Namen der Station zu sehen.

Darauf klicken, um die Beobachtung von Wetterbeobachtungen und Prognosen zu sehen.

Um die Karte zu ändern : klicken Sie auf den grünen Tasten mit einem schwarzen Kreuz Zum Vergrößern, auf den grünen Button mit einem Gedankenstrich zu verkleinern, oder auf die grünen Pfeile für benachbarte Karten.


METAR-TAF: